Terminal Aerodrome Forecast
Issued by NWS Paducah, KY

Home | Current Version | Previous Version | Text Only | Print | Product List | Glossary On
Versions: 1 2 3 4 5 6 7 8 9 10 11 12 13 14 15 16 17 18 19 20
000
FTUS43 KPAH 291700
TAFPAH
TAF
KPAH 291732Z 2918/3018 20007KT P6SM SCT050
     FM300200 18004KT P6SM BKN080 PROB30 3008/3013 4SM -TSRA
      BKN060CB
     FM301300 16004KT 4SM -TSRA BR BKN050CB
      TEMPO 3015/3018 2SM -TSRA BR OVC025CB=

USA.gov is the U.S. government's official web portal to all federal, state and local government web resources and services.